sensor_id;sensor_type;location;lat;lon;timestamp;pressure;altitude;pressure_sealevel;temperature;humidity
25650;BME280;13505;45.196;5.696;2023-04-08T06:02:01;99529.63;;;5.23;86.02
25650;BME280;13505;45.196;5.696;2023-04-08T06:06:51;99537.81;;;5.52;84.67
25650;BME280;13505;45.196;5.696;2023-04-08T06:11:42;99524.00;;;5.89;83.91
25650;BME280;13505;45.196;5.696;2023-04-08T06:16:33;99539.06;;;6.22;81.03
25650;BME280;13505;45.196;5.696;2023-04-08T06:21:25;99533.38;;;6.40;80.57
25650;BME280;13505;45.196;5.696;2023-04-08T06:26:15;99531.16;;;6.61;79.72
25650;BME280;13505;45.196;5.696;2023-04-08T06:31:06;99539.28;;;6.87;78.27
25650;BME280;13505;45.196;5.696;2023-04-08T06:36:04;99534.16;;;6.82;78.64
25650;BME280;13505;45.196;5.696;2023-04-08T06:40:54;99534.09;;;7.20;77.93
25650;BME280;13505;45.196;5.696;2023-04-08T06:45:45;99534.75;;;7.28;76.36
25650;BME280;13505;45.196;5.696;2023-04-08T06:50:36;99550.38;;;7.64;75.82
25650;BME280;13505;45.196;5.696;2023-04-08T06:55:26;99547.84;;;7.93;73.89
25650;BME280;13505;45.196;5.696;2023-04-08T07:00:17;99539.88;;;8.26;72.25
25650;BME280;13505;45.196;5.696;2023-04-08T07:05:07;99548.19;;;8.10;72.09
25650;BME280;13505;45.196;5.696;2023-04-08T07:09:58;99551.38;;;8.52;71.20
25650;BME280;13505;45.196;5.696;2023-04-08T07:14:48;99551.59;;;8.73;69.62
25650;BME280;13505;45.196;5.696;2023-04-08T07:19:39;99560.94;;;9.08;68.71
25650;BME280;13505;45.196;5.696;2023-04-08T07:29:23;99557.25;;;8.60;69.71
25650;BME280;13505;45.196;5.696;2023-04-08T07:34:14;99558.22;;;9.12;67.50
25650;BME280;13505;45.196;5.696;2023-04-08T07:39:05;99555.59;;;9.62;67.47
25650;BME280;13505;45.196;5.696;2023-04-08T07:43:56;99564.63;;;9.55;65.69
25650;BME280;13505;45.196;5.696;2023-04-08T07:48:46;99557.91;;;9.72;64.78
25650;BME280;13505;45.196;5.696;2023-04-08T07:53:38;99558.25;;;9.86;63.59
25650;BME280;13505;45.196;5.696;2023-04-08T08:08:36;99567.66;;;9.94;62.17
25650;BME280;13505;45.196;5.696;2023-04-08T08:13:26;99562.41;;;11.07;60.43
25650;BME280;13505;45.196;5.696;2023-04-08T08:18:17;99565.47;;;11.59;57.36
25650;BME280;13505;45.196;5.696;2023-04-08T08:23:07;99570.56;;;11.00;56.27
25650;BME280;13505;45.196;5.696;2023-04-08T08:27:57;99567.19;;;10.54;58.83
25650;BME280;13505;45.196;5.696;2023-04-08T08:32:47;99566.91;;;11.25;57.51
25650;BME280;13505;45.196;5.696;2023-04-08T08:37:39;99573.84;;;11.89;55.26
25650;BME280;13505;45.196;5.696;2023-04-08T08:42:29;99570.19;;;12.31;54.65
25650;BME280;13505;45.196;5.696;2023-04-08T08:47:19;99588.41;;;12.76;51.18
25650;BME280;13505;45.196;5.696;2023-04-08T08:52:10;99581.03;;;12.63;51.16
25650;BME280;13505;45.196;5.696;2023-04-08T08:57:04;99583.34;;;12.52;51.07
25650;BME280;13505;45.196;5.696;2023-04-08T09:01:55;99578.00;;;12.34;51.54
25650;BME280;13505;45.196;5.696;2023-04-08T09:06:46;99588.84;;;12.28;50.99
25650;BME280;13505;45.196;5.696;2023-04-08T09:11:44;99574.84;;;12.26;50.60
25650;BME280;13505;45.196;5.696;2023-04-08T09:16:41;99580.16;;;12.82;49.21
25650;BME280;13505;45.196;5.696;2023-04-08T09:21:31;99576.53;;;13.37;48.36
25650;BME280;13505;45.196;5.696;2023-04-08T09:26:23;99566.78;;;14.23;46.55
25650;BME280;13505;45.196;5.696;2023-04-08T09:31:24;99573.47;;;13.80;44.97
25650;BME280;13505;45.196;5.696;2023-04-08T09:36:15;99571.59;;;13.82;45.15
25650;BME280;13505;45.196;5.696;2023-04-08T09:41:07;99564.72;;;14.92;45.31
25650;BME280;13505;45.196;5.696;2023-04-08T09:46:01;99563.06;;;15.66;42.62
25650;BME280;13505;45.196;5.696;2023-04-08T09:50:55;99559.13;;;16.02;42.88
25650;BME280;13505;45.196;5.696;2023-04-08T09:55:52;99555.75;;;15.10;43.34
25650;BME280;13505;45.196;5.696;2023-04-08T10:00:46;99548.47;;;15.87;43.63
25650;BME280;13505;45.196;5.696;2023-04-08T10:05:40;99546.22;;;15.96;40.72
25650;BME280;13505;45.196;5.696;2023-04-08T10:10:34;99542.59;;;16.53;41.74
25650;BME280;13505;45.196;5.696;2023-04-08T10:15:31;99547.69;;;16.71;42.37
25650;BME280;13505;45.196;5.696;2023-04-08T10:35:31;99522.03;;;17.88;39.69
25650;BME280;13505;45.196;5.696;2023-04-08T10:40:22;99517.34;;;17.92;39.82
25650;BME280;13505;45.196;5.696;2023-04-08T10:45:18;99522.50;;;16.62;40.70
25650;BME280;13505;45.196;5.696;2023-04-08T10:50:15;99523.94;;;17.21;40.55
25650;BME280;13505;45.196;5.696;2023-04-08T10:55:06;99500.47;;;17.78;40.21
25650;BME280;13505;45.196;5.696;2023-04-08T10:59:57;99510.00;;;17.30;41.62
25650;BME280;13505;45.196;5.696;2023-04-08T11:04:47;99499.59;;;18.17;40.29
25650;BME280;13505;45.196;5.696;2023-04-08T11:09:37;99495.59;;;17.59;41.08
25650;BME280;13505;45.196;5.696;2023-04-08T11:14:30;99491.53;;;18.30;39.45
25650;BME280;13505;45.196;5.696;2023-04-08T11:19:23;99486.94;;;18.32;39.68
25650;BME280;13505;45.196;5.696;2023-04-08T11:24:13;99478.47;;;18.13;38.89
25650;BME280;13505;45.196;5.696;2023-04-08T11:29:05;99473.38;;;18.71;38.94
25650;BME280;13505;45.196;5.696;2023-04-08T11:34:01;99467.44;;;19.03;37.81
25650;BME280;13505;45.196;5.696;2023-04-08T11:38:53;99461.41;;;19.35;37.69
25650;BME280;13505;45.196;5.696;2023-04-08T11:43:51;99462.53;;;19.44;36.72
25650;BME280;13505;45.196;5.696;2023-04-08T11:48:56;99451.69;;;19.57;35.88
25650;BME280;13505;45.196;5.696;2023-04-08T11:53:47;99454.25;;;19.24;37.80
25650;BME280;13505;45.196;5.696;2023-04-08T11:58:38;99439.13;;;18.64;38.17
25650;BME280;13505;45.196;5.696;2023-04-08T12:03:28;99439.66;;;19.74;35.83
25650;BME280;13505;45.196;5.696;2023-04-08T12:08:18;99437.13;;;19.72;35.87
25650;BME280;13505;45.196;5.696;2023-04-08T12:13:09;99432.59;;;19.04;36.94
25650;BME280;13505;45.196;5.696;2023-04-08T12:17:59;99415.81;;;19.82;36.08
25650;BME280;13505;45.196;5.696;2023-04-08T12:22:50;99418.50;;;19.93;35.04
25650;BME280;13505;45.196;5.696;2023-04-08T12:27:40;99406.66;;;20.07;35.37
25650;BME280;13505;45.196;5.696;2023-04-08T12:32:31;99413.00;;;19.84;36.12
25650;BME280;13505;45.196;5.696;2023-04-08T12:37:21;99406.44;;;19.99;35.13
25650;BME280;13505;45.196;5.696;2023-04-08T12:42:12;99403.78;;;19.76;35.01
25650;BME280;13505;45.196;5.696;2023-04-08T12:47:02;99400.66;;;19.60;36.15
25650;BME280;13505;45.196;5.696;2023-04-08T12:51:53;99400.00;;;19.79;34.64
25650;BME280;13505;45.196;5.696;2023-04-08T12:56:44;99397.59;;;19.53;37.16
25650;BME280;13505;45.196;5.696;2023-04-08T13:01:35;99382.28;;;19.66;36.16
25650;BME280;13505;45.196;5.696;2023-04-08T13:06:25;99381.72;;;19.84;35.81
25650;BME280;13505;45.196;5.696;2023-04-08T13:11:16;99374.25;;;20.11;36.52
25650;BME280;13505;45.196;5.696;2023-04-08T13:16:07;99356.06;;;20.26;34.43
25650;BME280;13505;45.196;5.696;2023-04-08T13:20:58;99363.13;;;19.94;36.14
25650;BME280;13505;45.196;5.696;2023-04-08T13:25:48;99363.28;;;20.25;34.49
25650;BME280;13505;45.196;5.696;2023-04-08T13:30:39;99359.63;;;20.26;34.09
25650;BME280;13505;45.196;5.696;2023-04-08T13:35:29;99346.03;;;20.60;34.10
25650;BME280;13505;45.196;5.696;2023-04-08T13:40:20;99346.00;;;20.39;33.95
25650;BME280;13505;45.196;5.696;2023-04-08T13:45:10;99348.91;;;20.26;35.14
25650;BME280;13505;45.196;5.696;2023-04-08T13:50:01;99347.91;;;20.48;33.91
25650;BME280;13505;45.196;5.696;2023-04-08T13:54:51;99343.47;;;20.38;34.09
25650;BME280;13505;45.196;5.696;2023-04-08T13:59:42;99329.13;;;20.39;34.38
25650;BME280;13505;45.196;5.696;2023-04-08T14:04:32;99325.91;;;20.24;34.31
25650;BME280;13505;45.196;5.696;2023-04-08T14:09:23;99323.59;;;19.86;35.35
25650;BME280;13505;45.196;5.696;2023-04-08T14:14:14;99325.63;;;20.05;34.63
25650;BME280;13505;45.196;5.696;2023-04-08T14:19:04;99319.03;;;20.52;34.26
25650;BME280;13505;45.196;5.696;2023-04-08T14:23:55;99313.22;;;20.04;33.68
25650;BME280;13505;45.196;5.696;2023-04-08T14:28:46;99299.25;;;20.43;33.65
25650;BME280;13505;45.196;5.696;2023-04-08T14:33:36;99301.28;;;20.72;33.34
25650;BME280;13505;45.196;5.696;2023-04-08T14:38:28;99299.91;;;20.35;34.45
25650;BME280;13505;45.196;5.696;2023-04-08T14:43:18;99293.75;;;20.66;33.17
25650;BME280;13505;45.196;5.696;2023-04-08T14:48:08;99301.97;;;20.53;33.31
25650;BME280;13505;45.196;5.696;2023-04-08T14:52:59;99311.72;;;20.33;33.77
25650;BME280;13505;45.196;5.696;2023-04-08T14:57:50;99308.31;;;20.10;33.36
25650;BME280;13505;45.196;5.696;2023-04-08T15:02:40;99313.22;;;20.04;34.29
25650;BME280;13505;45.196;5.696;2023-04-08T15:07:30;99303.94;;;20.08;34.11
25650;BME280;13505;45.196;5.696;2023-04-08T15:12:21;99313.13;;;19.94;33.65
25650;BME280;13505;45.196;5.696;2023-04-08T15:17:12;99315.28;;;20.01;34.56
25650;BME280;13505;45.196;5.696;2023-04-08T15:22:02;99308.22;;;19.56;34.47
25650;BME280;13505;45.196;5.696;2023-04-08T15:26:52;99319.44;;;19.38;34.59
25650;BME280;13505;45.196;5.696;2023-04-08T15:31:43;99311.22;;;19.18;35.31
25650;BME280;13505;45.196;5.696;2023-04-08T15:36:33;99314.97;;;19.16;35.68
25650;BME280;13505;45.196;5.696;2023-04-08T15:41:26;99300.03;;;19.02;35.02
25650;BME280;13505;45.196;5.696;2023-04-08T15:46:19;99306.22;;;19.14;35.42
25650;BME280;13505;45.196;5.696;2023-04-08T15:51:10;99300.59;;;18.94;36.53
25650;BME280;13505;45.196;5.696;2023-04-08T15:56:02;99306.44;;;19.22;34.84
25650;BME280;13505;45.196;5.696;2023-04-08T16:00:53;99312.13;;;18.94;35.02
25650;BME280;13505;45.196;5.696;2023-04-08T16:05:44;99309.81;;;18.78;35.86
25650;BME280;13505;45.196;5.696;2023-04-08T16:10:35;99317.81;;;18.67;36.13
25650;BME280;13505;45.196;5.696;2023-04-08T16:15:25;99307.81;;;18.46;36.45
25650;BME280;13505;45.196;5.696;2023-04-08T16:20:16;99316.78;;;18.34;37.07
25650;BME280;13505;45.196;5.696;2023-04-08T16:25:06;99311.28;;;17.99;37.72
25650;BME280;13505;45.196;5.696;2023-04-08T16:29:57;99323.97;;;17.84;37.74
25650;BME280;13505;45.196;5.696;2023-04-08T16:34:47;99318.19;;;17.66;38.47
25650;BME280;13505;45.196;5.696;2023-04-08T16:39:37;99325.44;;;17.64;38.98
25650;BME280;13505;45.196;5.696;2023-04-08T16:44:28;99325.59;;;17.50;39.72
25650;BME280;13505;45.196;5.696;2023-04-08T16:49:18;99337.03;;;17.39;40.25
25650;BME280;13505;45.196;5.696;2023-04-08T16:54:09;99329.38;;;17.34;40.61
25650;BME280;13505;45.196;5.696;2023-04-08T16:58:59;99328.00;;;17.15;41.05
25650;BME280;13505;45.196;5.696;2023-04-08T17:03:49;99332.91;;;16.96;41.41
25650;BME280;13505;45.196;5.696;2023-04-08T17:08:41;99348.25;;;16.79;41.81
25650;BME280;13505;45.196;5.696;2023-04-08T17:13:36;99338.44;;;16.54;43.10
25650;BME280;13505;45.196;5.696;2023-04-08T17:18:26;99340.75;;;16.32;43.98
25650;BME280;13505;45.196;5.696;2023-04-08T17:23:16;99336.91;;;16.24;44.42
25650;BME280;13505;45.196;5.696;2023-04-08T17:28:07;99345.72;;;16.11;45.30
25650;BME280;13505;45.196;5.696;2023-04-08T17:32:57;99343.88;;;15.99;46.05
25650;BME280;13505;45.196;5.696;2023-04-08T17:37:48;99343.03;;;15.84;46.10
25650;BME280;13505;45.196;5.696;2023-04-08T17:42:39;99348.53;;;15.81;46.06
25650;BME280;13505;45.196;5.696;2023-04-08T17:47:29;99345.41;;;15.74;46.95
25650;BME280;13505;45.196;5.696;2023-04-08T17:52:20;99342.34;;;15.53;47.95
25650;BME280;13505;45.196;5.696;2023-04-08T17:57:10;99340.16;;;15.45;48.17
